createdAt,value
2019-05-05T00:01:15.968Z,88.50
2019-05-05T00:03:50.623Z,88.53
2019-05-05T00:06:19.723Z,88.86
2019-05-05T00:08:48.758Z,89.29
2019-05-05T00:11:35.250Z,89.35
2019-05-05T00:14:17.591Z,89.30
2019-05-05T00:16:57.452Z,89.27
2019-05-05T00:19:32.636Z,89.00
2019-05-05T00:21:57.373Z,89.00
2019-05-05T00:24:26.457Z,88.92
2019-05-05T00:26:55.550Z,88.61
2019-05-05T00:29:25.363Z,88.83
2019-05-05T00:31:54.767Z,89.19
2019-05-05T00:34:24.441Z,89.14
2019-05-05T00:36:55.265Z,89.02
2019-05-05T00:39:25.529Z,89.37
2019-05-05T00:41:55.494Z,89.73
2019-05-05T00:44:24.764Z,89.73
2019-05-05T00:47:18.573Z,89.65
2019-05-05T00:49:49.481Z,89.47
2019-05-05T00:52:18.650Z,89.35
2019-05-05T00:54:47.780Z,89.44
2019-05-05T00:57:16.899Z,89.83
2019-05-05T00:59:46.027Z,89.64
2019-05-05T01:02:36.563Z,89.75
2019-05-05T01:05:25.339Z,90.16
2019-05-05T01:07:54.804Z,89.85
2019-05-05T01:10:24.842Z,89.59
2019-05-05T01:12:54.562Z,89.15
2019-05-05T01:15:25.437Z,89.22
2019-05-05T01:17:55.271Z,88.73
2019-05-05T01:20:25.037Z,89.04
2019-05-05T01:22:55.310Z,89.33
2019-05-05T01:25:25.809Z,89.45
2019-05-05T01:27:55.008Z,89.66
2019-05-05T01:30:29.591Z,89.90
2019-05-05T01:33:05.483Z,90.12
2019-05-05T01:35:35.964Z,89.41
2019-05-05T01:38:10.501Z,89.47
2019-05-05T01:41:01.326Z,89.21
2019-05-05T01:43:30.447Z,88.95
2019-05-05T01:46:00.693Z,89.53
2019-05-05T01:48:29.846Z,89.15
2019-05-05T01:50:59.034Z,89.30
2019-05-05T01:53:28.206Z,89.65
2019-05-05T01:55:57.263Z,89.93
2019-05-05T01:58:26.492Z,90.07
2019-05-05T02:00:55.645Z,90.06
2019-05-05T02:03:25.196Z,89.24
2019-05-05T02:05:55.826Z,89.63
2019-05-05T02:08:24.891Z,90.01
2019-05-05T02:10:54.752Z,88.33
2019-05-05T02:13:25.176Z,89.18
2019-05-05T02:15:55.275Z,89.11
2019-05-05T02:18:25.348Z,90.38
2019-05-05T02:21:05.173Z,91.98
2019-05-05T02:23:35.376Z,90.72
2019-05-05T02:26:07.259Z,90.56
2019-05-05T02:28:45.428Z,90.75
2019-05-05T02:31:48.331Z,88.68
2019-05-05T02:34:17.407Z,90.82
2019-05-05T02:36:46.475Z,90.15
2019-05-05T02:39:16.148Z,89.39
2019-05-05T02:41:45.423Z,88.51
2019-05-05T02:44:15.490Z,89.83
2019-05-05T02:46:49.611Z,89.42
2019-05-05T02:49:18.734Z,89.64
2019-05-05T02:51:48.092Z,89.77
2019-05-05T02:54:19.341Z,89.78
2019-05-05T02:56:50.412Z,88.59
2019-05-05T02:59:49.227Z,89.63
2019-05-05T03:02:21.237Z,91.26
2019-05-05T03:04:50.454Z,89.81
2019-05-05T03:07:19.640Z,88.89
2019-05-05T03:09:49.087Z,89.25
2019-05-05T03:12:18.671Z,88.17
2019-05-05T03:14:47.870Z,88.81
2019-05-05T03:17:17.007Z,88.66
2019-05-05T03:19:46.162Z,89.98
2019-05-05T03:22:15.306Z,88.78
2019-05-05T03:24:44.732Z,90.61
2019-05-05T03:27:14.454Z,89.02
2019-05-05T03:29:44.212Z,89.28
2019-05-05T03:32:16.018Z,89.27
2019-05-05T03:34:45.002Z,90.73
2019-05-05T03:37:14.715Z,89.08
2019-05-05T03:39:47.945Z,89.84
2019-05-05T03:42:49.010Z,91.59
2019-05-05T03:45:34.283Z,90.10
2019-05-05T03:48:04.638Z,91.69
2019-05-05T03:50:34.116Z,91.65
2019-05-05T03:53:04.913Z,90.10
2019-05-05T03:55:34.533Z,89.62
2019-05-05T03:58:04.117Z,90.76
2019-05-05T04:01:23.974Z,90.87
2019-05-05T04:03:54.116Z,89.47
2019-05-05T04:06:37.201Z,89.88
2019-05-05T04:09:08.187Z,89.05
2019-05-05T04:11:37.741Z,89.15
2019-05-05T04:14:08.260Z,88.35
2019-05-05T04:16:43.623Z,89.27
2019-05-05T04:19:13.906Z,89.45
2019-05-05T04:21:44.911Z,88.72
2019-05-05T04:24:14.783Z,89.56
2019-05-05T04:26:44.144Z,88.72
2019-05-05T04:29:13.939Z,90.32
2019-05-05T04:31:46.056Z,89.83
2019-05-05T04:34:16.192Z,88.12
2019-05-05T04:36:45.318Z,89.22
2019-05-05T04:39:14.541Z,89.38
2019-05-05T04:41:44.094Z,88.43
2019-05-05T04:44:14.852Z,87.46
2019-05-05T04:46:45.711Z,87.93
2019-05-05T04:49:33.958Z,86.63
2019-05-05T04:52:05.755Z,85.74
2019-05-05T04:54:48.325Z,86.19
2019-05-05T04:57:17.400Z,84.36
2019-05-05T04:59:47.485Z,87.33
2019-05-05T05:02:35.549Z,88.23
2019-05-05T05:05:20.680Z,87.46
2019-05-05T05:07:49.806Z,87.99
2019-05-05T05:10:19.080Z,87.53
2019-05-05T05:12:49.945Z,87.74
2019-05-05T05:15:19.165Z,86.50
2019-05-05T05:17:54.978Z,88.71
2019-05-05T05:20:24.681Z,85.91
2019-05-05T05:22:54.436Z,82.51
2019-05-05T05:25:24.068Z,83.24
2019-05-05T05:27:54.365Z,84.74
2019-05-05T05:30:24.236Z,84.07
2019-05-05T05:32:53.933Z,82.08
2019-05-05T05:35:24.413Z,79.68
2019-05-05T05:37:57.627Z,78.76
2019-05-05T05:41:04.243Z,79.06
2019-05-05T05:43:43.960Z,76.48
2019-05-05T05:46:29.479Z,75.88
2019-05-05T05:49:24.144Z,74.15
2019-05-05T05:51:53.882Z,73.75
2019-05-05T05:54:23.540Z,76.01
2019-05-05T05:56:53.823Z,75.98
2019-05-05T05:59:24.681Z,77.13
2019-05-05T06:02:08.702Z,78.08
2019-05-05T06:04:25.862Z,77.22
2019-05-05T06:06:55.236Z,76.89
2019-05-05T06:09:24.391Z,76.23
2019-05-05T06:11:54.223Z,76.69
2019-05-05T06:14:24.670Z,77.13
2019-05-05T06:16:54.127Z,75.75
2019-05-05T06:19:24.608Z,74.53
2019-05-05T06:21:54.369Z,73.45
2019-05-05T06:24:24.635Z,73.69
2019-05-05T06:26:54.712Z,72.05
2019-05-05T06:29:24.007Z,74.42
2019-05-05T06:31:53.769Z,71.74
2019-05-05T06:34:24.400Z,67.91
2019-05-05T06:36:53.843Z,67.23
2019-05-05T06:39:24.141Z,67.34
2019-05-05T06:42:10.809Z,68.40
2019-05-05T06:44:53.416Z,70.13
2019-05-05T06:47:26.031Z,67.91
2019-05-05T06:49:55.158Z,67.36
2019-05-05T06:52:24.826Z,66.98
2019-05-05T06:54:55.038Z,64.84
2019-05-05T06:57:24.179Z,64.88
2019-05-05T06:59:54.386Z,65.90
2019-05-05T07:02:23.872Z,64.20
2019-05-05T07:04:54.632Z,66.86
2019-05-05T07:07:23.935Z,63.69
2019-05-05T07:09:54.292Z,61.94
2019-05-05T07:12:24.157Z,56.05
2019-05-05T07:14:54.805Z,57.36
2019-05-05T07:17:24.518Z,57.24
2019-05-05T07:19:54.357Z,55.24
2019-05-05T07:22:24.440Z,54.05
2019-05-05T07:24:54.959Z,52.34
2019-05-05T07:27:24.442Z,50.97
2019-05-05T07:29:54.133Z,49.58
2019-05-05T07:32:24.525Z,52.76
2019-05-05T07:35:21.738Z,54.45
2019-05-05T07:37:50.812Z,56.80
2019-05-05T07:40:19.858Z,55.62
2019-05-05T07:42:48.886Z,54.00
2019-05-05T07:45:22.838Z,54.68
2019-05-05T07:47:48.747Z,55.67
2019-05-05T07:50:28.443Z,54.02
2019-05-05T07:52:48.646Z,52.67
2019-05-05T07:55:17.763Z,51.33
2019-05-05T07:57:46.887Z,51.25
2019-05-05T08:00:16.089Z,51.55
2019-05-05T08:02:45.398Z,50.24
2019-05-05T08:05:15.023Z,49.29
2019-05-05T08:07:44.777Z,49.71
2019-05-05T08:10:13.972Z,50.37
2019-05-05T08:12:43.598Z,53.19
2019-05-05T08:15:14.781Z,53.41
2019-05-05T08:18:04.614Z,54.64
2019-05-05T08:20:37.345Z,55.27
2019-05-05T08:23:08.756Z,55.50
2019-05-05T08:26:04.574Z,57.03
2019-05-05T08:28:43.467Z,56.02
2019-05-05T08:31:20.601Z,57.01
2019-05-05T08:33:49.762Z,53.21
2019-05-05T08:36:18.849Z,51.27
2019-05-05T08:38:48.488Z,48.26
2019-05-05T08:41:17.531Z,48.00
2019-05-05T08:43:46.894Z,48.68
2019-05-05T08:46:16.002Z,47.92
2019-05-05T08:48:45.147Z,49.64
2019-05-05T08:51:14.312Z,50.48
2019-05-05T08:53:47.905Z,48.45
2019-05-05T08:56:14.717Z,49.91
2019-05-05T08:58:43.951Z,52.89
2019-05-05T09:01:14.937Z,52.49
2019-05-05T09:03:44.999Z,52.56
2019-05-05T09:06:14.047Z,51.08
2019-05-05T09:08:44.188Z,50.45
2019-05-05T09:11:14.051Z,49.65
2019-05-05T09:13:44.656Z,52.32
2019-05-05T09:16:14.557Z,48.33
2019-05-05T09:19:04.935Z,48.96
2019-05-05T09:21:34.641Z,47.02
2019-05-05T09:24:22.470Z,45.80
2019-05-05T09:27:14.018Z,50.12
2019-05-05T09:29:44.060Z,50.54
2019-05-05T09:32:13.918Z,51.65
2019-05-05T09:34:43.694Z,52.61
2019-05-05T09:37:14.381Z,52.77
2019-05-05T09:39:43.842Z,52.63
2019-05-05T09:42:14.564Z,52.71
2019-05-05T09:44:43.967Z,51.51
2019-05-05T09:47:13.816Z,51.79
2019-05-05T09:49:44.625Z,51.20
2019-05-05T09:52:14.122Z,50.25
2019-05-05T09:54:43.842Z,53.07
2019-05-05T09:57:14.504Z,51.40
2019-05-05T09:59:44.324Z,53.96
2019-05-05T10:02:13.481Z,53.67
2019-05-05T10:04:44.142Z,52.66
2019-05-05T10:07:13.948Z,52.69
2019-05-05T10:09:43.755Z,50.64
2019-05-05T10:12:13.011Z,50.99
2019-05-05T10:14:42.047Z,52.47
2019-05-05T10:17:11.126Z,52.81
2019-05-05T10:19:40.140Z,52.35
2019-05-05T10:22:09.226Z,51.06
2019-05-05T10:24:47.796Z,53.25
2019-05-05T10:27:16.874Z,51.92
2019-05-05T10:29:45.901Z,49.37
2019-05-05T10:32:15.066Z,51.94
2019-05-05T10:34:45.733Z,45.22
2019-05-05T10:37:14.792Z,44.85
2019-05-05T10:39:49.208Z,45.66
2019-05-05T10:42:19.890Z,44.23
2019-05-05T10:44:48.956Z,46.77
2019-05-05T10:47:18.065Z,44.73
2019-05-05T10:49:47.097Z,44.09
2019-05-05T10:52:16.198Z,41.04
2019-05-05T10:54:45.224Z,41.36
2019-05-05T10:57:16.625Z,42.23
2019-05-05T10:59:45.128Z,46.16
2019-05-05T11:02:14.257Z,49.70
2019-05-05T11:04:44.152Z,52.11
2019-05-05T11:07:14.610Z,57.73
2019-05-05T11:09:44.432Z,66.27
2019-05-05T11:12:14.307Z,65.14
2019-05-05T11:14:44.315Z,68.02
2019-05-05T11:17:15.381Z,68.71
2019-05-05T11:19:44.506Z,68.98
2019-05-05T11:22:14.768Z,69.01
2019-05-05T11:24:55.223Z,67.43
2019-05-05T11:27:16.397Z,67.64
2019-05-05T11:30:03.985Z,65.83
2019-05-05T11:32:50.840Z,65.06
2019-05-05T11:35:21.517Z,64.80
2019-05-05T11:37:50.582Z,64.13
2019-05-05T11:40:31.701Z,63.08
2019-05-05T11:43:00.828Z,59.25
2019-05-05T11:45:31.250Z,60.72
2019-05-05T11:48:00.515Z,61.14
2019-05-05T11:50:29.553Z,61.79
2019-05-05T11:52:58.647Z,57.86
2019-05-05T11:55:27.709Z,55.82
2019-05-05T11:57:57.753Z,51.72
2019-05-05T12:00:26.798Z,48.65
2019-05-05T12:02:55.908Z,50.66
2019-05-05T12:05:25.012Z,50.90
2019-05-05T12:07:54.208Z,51.20
2019-05-05T12:10:40.651Z,56.04
2019-05-05T12:13:10.830Z,56.09
2019-05-05T12:15:44.612Z,57.19
2019-05-05T12:18:14.405Z,53.86
2019-05-05T12:20:44.196Z,53.59
2019-05-05T12:23:13.289Z,53.37
2019-05-05T12:25:57.000Z,51.03
2019-05-05T12:28:31.702Z,48.95
2019-05-05T12:31:03.573Z,51.11
2019-05-05T12:33:33.616Z,51.54
2019-05-05T12:36:05.227Z,52.01
2019-05-05T12:38:34.814Z,48.61
2019-05-05T12:41:04.468Z,46.37
2019-05-05T12:43:34.117Z,46.74
2019-05-05T12:46:16.481Z,45.62
2019-05-05T12:48:45.945Z,48.57
2019-05-05T12:51:15.030Z,49.18
2019-05-05T12:53:44.122Z,46.11
2019-05-05T12:56:14.755Z,43.81
2019-05-05T12:58:44.092Z,42.63
2019-05-05T13:01:19.032Z,43.06
2019-05-05T13:03:48.167Z,42.28
2019-05-05T13:06:17.369Z,41.24
2019-05-05T13:08:46.567Z,43.08
2019-05-05T13:11:15.693Z,41.55
2019-05-05T13:13:44.781Z,41.38
2019-05-05T13:16:13.972Z,41.93
2019-05-05T13:18:43.003Z,41.95
2019-05-05T13:21:20.616Z,44.14
2019-05-05T13:24:14.772Z,45.45
2019-05-05T13:26:53.688Z,45.45
2019-05-05T13:29:24.577Z,45.12
2019-05-05T13:31:54.455Z,48.01
2019-05-05T13:34:25.016Z,48.51
2019-05-05T13:36:54.129Z,49.97
2019-05-05T13:39:24.715Z,48.86
2019-05-05T13:41:54.138Z,50.12
2019-05-05T13:44:48.042Z,48.09
2019-05-05T13:47:17.615Z,47.20
2019-05-05T13:49:46.791Z,44.79
2019-05-05T13:52:15.894Z,43.01
2019-05-05T13:54:46.577Z,43.28
2019-05-05T13:57:15.943Z,44.80
2019-05-05T13:59:45.264Z,43.87
2019-05-05T14:02:15.355Z,42.35
2019-05-05T14:04:44.627Z,43.10
2019-05-05T14:07:13.759Z,42.15
2019-05-05T14:09:44.208Z,41.41
2019-05-05T14:12:14.623Z,42.59
2019-05-05T14:14:44.109Z,42.50
2019-05-05T14:17:14.716Z,46.21
2019-05-05T14:19:44.628Z,44.68
2019-05-05T14:22:15.124Z,46.31
2019-05-05T14:24:48.170Z,45.74
2019-05-05T14:27:17.267Z,45.56
2019-05-05T14:29:55.079Z,45.34
2019-05-05T14:32:28.805Z,44.11
2019-05-05T14:35:11.028Z,45.48
2019-05-05T14:37:44.456Z,46.61
2019-05-05T14:40:13.649Z,47.99
2019-05-05T14:42:44.825Z,45.96
2019-05-05T14:45:15.362Z,47.68
2019-05-05T14:47:44.509Z,49.02
2019-05-05T14:50:13.612Z,45.17
2019-05-05T14:52:44.084Z,46.78
2019-05-05T14:55:14.038Z,45.72
2019-05-05T14:57:46.079Z,45.83
2019-05-05T15:00:17.680Z,45.29
2019-05-05T15:02:47.500Z,47.67
2019-05-05T15:05:44.389Z,46.75
2019-05-05T15:08:35.593Z,46.53
2019-05-05T15:11:07.514Z,46.89
2019-05-05T15:13:37.018Z,49.08
2019-05-05T15:16:09.974Z,46.24
2019-05-05T15:18:38.452Z,48.39
2019-05-05T15:21:08.178Z,47.22
2019-05-05T15:23:37.413Z,45.83
2019-05-05T15:26:08.146Z,47.35
2019-05-05T15:28:37.275Z,45.32
2019-05-05T15:31:06.358Z,45.83
2019-05-05T15:33:35.429Z,48.41
2019-05-05T15:36:04.629Z,47.82
2019-05-05T15:38:34.839Z,48.47
2019-05-05T15:41:04.150Z,47.83
2019-05-05T15:43:33.580Z,48.49
2019-05-05T15:46:04.449Z,49.09
2019-05-05T15:48:33.730Z,51.65
2019-05-05T15:51:04.198Z,53.21
2019-05-05T15:53:33.570Z,56.35
2019-05-05T15:56:04.376Z,59.97
2019-05-05T15:58:34.241Z,59.67
2019-05-05T16:01:03.841Z,61.74
2019-05-05T16:03:32.968Z,59.96
2019-05-05T16:06:03.781Z,61.88
2019-05-05T16:08:33.950Z,61.64
2019-05-05T16:11:03.753Z,56.81
2019-05-05T16:13:35.067Z,58.30
2019-05-05T16:16:34.882Z,61.33
2019-05-05T16:19:14.009Z,61.09
2019-05-05T16:21:54.674Z,62.20
2019-05-05T16:24:25.889Z,62.91
2019-05-05T16:26:55.575Z,65.23
2019-05-05T16:29:24.692Z,66.45
2019-05-05T16:31:54.779Z,68.62
2019-05-05T16:34:23.883Z,68.18
2019-05-05T16:36:56.655Z,68.61
2019-05-05T16:39:25.661Z,66.08
2019-05-05T16:41:55.765Z,65.22
2019-05-05T16:44:24.953Z,65.69
2019-05-05T16:46:54.114Z,65.96
2019-05-05T16:49:23.256Z,64.22
2019-05-05T16:52:01.391Z,62.66
2019-05-05T16:54:36.155Z,61.48
2019-05-05T16:57:05.848Z,62.80
2019-05-05T16:59:36.154Z,62.86
2019-05-05T17:02:05.223Z,64.86
2019-05-05T17:04:35.640Z,66.82
2019-05-05T17:07:04.895Z,65.80
2019-05-05T17:09:34.441Z,65.41
2019-05-05T17:12:10.194Z,66.09
2019-05-05T17:15:08.569Z,61.81
2019-05-05T17:17:49.952Z,63.24
2019-05-05T17:20:21.955Z,64.04
2019-05-05T17:22:55.162Z,62.76
2019-05-05T17:25:24.695Z,63.39
2019-05-05T17:27:54.571Z,60.88
2019-05-05T17:30:27.017Z,60.45
2019-05-05T17:32:54.637Z,60.53
2019-05-05T17:35:24.060Z,62.68
2019-05-05T17:37:53.918Z,61.84
2019-05-05T17:40:44.825Z,60.31
2019-05-05T17:43:27.607Z,61.02
2019-05-05T17:46:05.280Z,61.15
2019-05-05T17:48:46.107Z,61.59
2019-05-05T17:51:34.150Z,60.33
2019-05-05T17:54:12.773Z,59.37
2019-05-05T17:56:42.104Z,60.22
2019-05-05T17:59:11.291Z,59.83
2019-05-05T18:01:40.409Z,60.54
2019-05-05T18:04:10.665Z,59.27
2019-05-05T18:06:47.426Z,63.81
2019-05-05T18:09:24.209Z,61.66
2019-05-05T18:12:17.177Z,63.07
2019-05-05T18:14:46.439Z,64.96
2019-05-05T18:17:15.997Z,66.67
2019-05-05T18:19:45.207Z,66.74
2019-05-05T18:22:15.649Z,67.22
2019-05-05T18:24:44.801Z,67.51
2019-05-05T18:27:14.188Z,70.66
2019-05-05T18:29:43.710Z,72.50
2019-05-05T18:32:13.867Z,69.54
2019-05-05T18:34:43.025Z,69.59
2019-05-05T18:37:12.108Z,70.55
2019-05-05T18:39:41.338Z,71.97
2019-05-05T18:42:17.670Z,72.69
2019-05-05T18:44:49.050Z,72.86
2019-05-05T18:47:19.219Z,74.49
2019-05-05T18:49:48.414Z,76.51
2019-05-05T18:52:18.788Z,76.92
2019-05-05T18:54:47.931Z,75.51
2019-05-05T18:57:17.043Z,77.40
2019-05-05T18:59:46.212Z,78.25
2019-05-05T19:02:37.126Z,79.12
2019-05-05T19:05:26.027Z,79.02
2019-05-05T19:08:01.957Z,79.07
2019-05-05T19:10:31.223Z,79.65
2019-05-05T19:13:00.379Z,78.21
2019-05-05T19:15:29.497Z,76.78
2019-05-05T19:17:58.602Z,75.38
2019-05-05T19:20:36.748Z,75.89
2019-05-05T19:23:06.099Z,76.76
2019-05-05T19:25:35.868Z,76.44
2019-05-05T19:28:05.239Z,77.02
2019-05-05T19:30:36.184Z,76.96
2019-05-05T19:33:05.570Z,77.14
2019-05-05T19:35:44.187Z,77.13
2019-05-05T19:38:05.652Z,77.42
2019-05-05T19:40:36.092Z,77.70
2019-05-05T19:43:05.291Z,78.23
2019-05-05T19:45:34.643Z,79.74
2019-05-05T19:48:05.899Z,81.16
2019-05-05T19:50:40.534Z,82.81
2019-05-05T19:53:24.607Z,83.38
2019-05-05T19:55:54.813Z,82.67
2019-05-05T19:58:24.126Z,82.54
2019-05-05T20:00:57.293Z,82.22
2019-05-05T20:03:26.502Z,82.28
2019-05-05T20:05:55.762Z,82.03
2019-05-05T20:08:39.013Z,83.17
2019-05-05T20:10:56.095Z,82.70
2019-05-05T20:13:25.343Z,82.13
2019-05-05T20:16:16.198Z,82.52
2019-05-05T20:18:45.343Z,83.82
2019-05-05T20:21:15.930Z,84.82
2019-05-05T20:23:45.139Z,85.29
2019-05-05T20:26:14.596Z,84.77
2019-05-05T20:28:43.701Z,84.51
2019-05-05T20:31:14.215Z,83.90
2019-05-05T20:33:50.520Z,83.99
2019-05-05T20:36:23.752Z,83.38
2019-05-05T20:38:54.931Z,83.79
2019-05-05T20:41:25.399Z,84.90
2019-05-05T20:43:54.564Z,85.62
2019-05-05T20:46:23.881Z,86.12
2019-05-05T20:48:54.519Z,85.89
2019-05-05T20:51:24.260Z,85.91
2019-05-05T20:53:54.196Z,86.14
2019-05-05T20:56:23.542Z,86.45
2019-05-05T20:58:54.734Z,86.34
2019-05-05T21:01:24.598Z,86.14
2019-05-05T21:03:54.023Z,86.17
2019-05-05T21:06:24.557Z,84.51
2019-05-05T21:08:53.862Z,84.31
2019-05-05T21:11:24.677Z,85.45
2019-05-05T21:13:54.422Z,86.77
2019-05-05T21:16:23.781Z,86.23
2019-05-05T21:18:53.941Z,85.76
2019-05-05T21:21:27.050Z,86.45
2019-05-05T21:23:58.118Z,86.25
2019-05-05T21:26:46.340Z,86.29
2019-05-05T21:29:15.875Z,87.15
2019-05-05T21:31:46.333Z,87.14
2019-05-05T21:34:15.480Z,87.65
2019-05-05T21:36:45.036Z,86.68
2019-05-05T21:39:14.867Z,87.88
2019-05-05T21:41:44.133Z,87.49
2019-05-05T21:44:14.750Z,90.24
2019-05-05T21:46:43.984Z,90.50
2019-05-05T21:49:13.728Z,91.33
2019-05-05T21:51:59.226Z,91.41
2019-05-05T21:54:44.817Z,90.92
2019-05-05T21:57:45.367Z,90.93
2019-05-05T22:00:37.441Z,92.06
2019-05-05T22:03:07.157Z,92.04
2019-05-05T22:05:36.675Z,91.08
2019-05-05T22:08:06.650Z,91.65
2019-05-05T22:10:36.128Z,92.95
2019-05-05T22:13:05.306Z,91.08
2019-05-05T22:15:35.791Z,91.81
2019-05-05T22:18:05.012Z,92.73
2019-05-05T22:20:39.769Z,91.87
2019-05-05T22:23:10.381Z,92.33
2019-05-05T22:25:39.611Z,91.38
2019-05-05T22:28:09.283Z,90.27
2019-05-05T22:30:38.465Z,89.78
2019-05-05T22:33:07.659Z,89.71
2019-05-05T22:35:37.387Z,89.21
2019-05-05T22:38:06.650Z,88.82
2019-05-05T22:40:35.871Z,88.85
2019-05-05T22:43:05.308Z,87.42
2019-05-05T22:45:34.564Z,88.82
2019-05-05T22:48:04.682Z,89.87
2019-05-05T22:50:34.139Z,89.22
2019-05-05T22:53:03.451Z,90.48
2019-05-05T22:55:34.407Z,90.79
2019-05-05T22:58:04.118Z,92.70
2019-05-05T23:00:34.830Z,91.68
2019-05-05T23:03:24.540Z,91.35
2019-05-05T23:06:00.184Z,92.32
2019-05-05T23:08:29.421Z,92.75
2019-05-05T23:10:58.814Z,93.29
2019-05-05T23:13:29.730Z,93.61
2019-05-05T23:16:07.064Z,93.40
2019-05-05T23:18:36.162Z,93.85
2019-05-05T23:21:24.676Z,93.42
2019-05-05T23:24:07.716Z,93.62
2019-05-05T23:26:38.180Z,93.85
2019-05-05T23:29:07.384Z,93.88
2019-05-05T23:31:37.942Z,92.96
2019-05-05T23:34:07.116Z,93.62
2019-05-05T23:36:36.312Z,92.75
2019-05-05T23:39:06.770Z,93.40
2019-05-05T23:41:36.634Z,93.43
2019-05-05T23:44:06.060Z,94.02
2019-05-05T23:46:35.229Z,94.41
2019-05-05T23:49:04.511Z,94.43
2019-05-05T23:51:34.740Z,94.44
2019-05-05T23:54:04.376Z,94.59
2019-05-05T23:56:34.949Z,94.91
2019-05-05T23:59:04.458Z,94.76
